Time;durP1;ratioP1;P1;durP2;ratioP2;P2;SDS_P1;SDS_P2;PMS_P1;PMS_P2;Temp;Humidity;BMP_temperature;BMP_pressure;BME280_temperature;BME280_humidity;BME280_pressure;Samples;Min_cycle;Max_cycle;Signal;HPM_P1;HPM_P2
2021/11/02 00:01:46;;;;;;;2.97;2.78;;;;;;;10.62;100.00;98364.09;5063535;28;20058;-78
2021/11/02 00:04:13;;;;;;;3.45;3.15;;;;;;;10.43;100.00;98365.53;5061911;28;20493;-79
2021/11/02 00:06:41;;;;;;;3.42;2.38;;;;;;;10.15;100.00;98371.25;5064649;28;20057;-79
2021/11/02 00:09:11;;;;;;;3.75;3.30;;;;;;;10.12;100.00;98361.06;5061526;28;20064;-78
2021/11/02 00:11:39;;;;;;;3.13;2.88;;;;;;;10.11;100.00;98359.41;5059107;28;20175;-78
2021/11/02 00:14:09;;;;;;;3.33;3.08;;;;;;;10.08;100.00;98360.50;5062826;28;20041;-78
2021/11/02 00:16:37;;;;;;;2.80;2.60;;;;;;;10.05;100.00;98365.91;5040708;28;20052;-79
2021/11/02 00:19:05;;;;;;;3.53;3.20;;;;;;;10.03;100.00;98362.63;5072117;28;20040;-78
2021/11/02 00:21:37;;;;;;;2.60;2.40;;;;;;;9.82;100.00;98359.91;5073030;28;20049;-78
2021/11/02 00:24:16;;;;;;;2.50;2.30;;;;;;;9.90;100.00;98370.53;5073552;28;20045;-79
2021/11/02 00:26:44;;;;;;;1.90;1.80;;;;;;;9.68;100.00;98360.94;5054687;28;20051;-76
2021/11/02 00:29:11;;;;;;;1.85;1.75;;;;;;;9.75;100.00;98368.28;5073675;28;20181;-77
2021/11/02 00:31:40;;;;;;;2.75;1.65;;;;;;;9.66;100.00;98362.00;5073284;28;20127;-79
2021/11/02 00:34:09;;;;;;;4.03;1.70;;;;;;;9.67;100.00;98363.66;5073113;28;20076;-76
2021/11/02 00:36:37;;;;;;;2.45;2.22;;;;;;;9.59;100.00;98363.44;5054880;28;20098;-77
2021/11/02 00:39:05;;;;;;;2.63;1.70;;;;;;;9.70;100.00;98355.63;5073392;28;20036;-78
2021/11/02 00:41:33;;;;;;;5.07;1.52;;;;;;;9.46;100.00;98360.91;5055360;28;20040;-81
2021/11/02 00:44:00;;;;;;;1.50;1.40;;;;;;;9.67;100.00;98358.47;5054553;28;20045;-80
2021/11/02 00:46:32;;;;;;;2.05;1.30;;;;;;;9.76;100.00;98360.38;5073511;28;20040;-78
2021/11/02 00:49:00;;;;;;;1.50;1.40;;;;;;;9.54;100.00;98361.19;5073282;28;20131;-80
2021/11/02 00:51:28;;;;;;;7.32;1.63;;;;;;;9.64;100.00;98366.50;5072595;28;20502;-80
2021/11/02 00:53:56;;;;;;;2.10;1.85;;;;;;;9.50;100.00;98361.53;5072750;28;20044;-80
2021/11/02 00:56:23;;;;;;;1.63;1.52;;;;;;;9.35;100.00;98361.72;5073132;28;20033;-79
2021/11/02 00:58:50;;;;;;;2.65;2.08;;;;;;;9.38;100.00;98364.09;5054731;28;20473;-80
2021/11/02 01:01:17;;;;;;;5.68;2.92;;;;;;;9.36;100.00;98363.38;5055113;28;20516;-80
2021/11/02 01:03:44;;;;;;;4.50;4.07;;;;;;;9.53;100.00;98369.91;5072580;28;20044;-79
2021/11/02 01:06:11;;;;;;;5.10;4.18;;;;;;;9.30;100.00;98363.84;5055420;28;20140;-80
2021/11/02 01:08:38;;;;;;;4.57;4.18;;;;;;;9.15;100.00;98357.16;5073240;28;20040;-80
2021/11/02 01:11:06;;;;;;;4.32;4.03;;;;;;;9.20;100.00;98355.06;5054869;28;20513;-81
2021/11/02 01:13:35;;;;;;;3.92;3.60;;;;;;;9.15;100.00;98354.56;5055014;28;20049;-79
2021/11/02 01:16:03;;;;;;;5.15;2.92;;;;;;;9.14;100.00;98352.91;5072381;28;20538;-78
2021/11/02 01:18:30;;;;;;;3.05;2.60;;;;;;;9.03;100.00;98351.13;5072818;28;20498;-78
2021/11/02 01:20:58;;;;;;;3.25;2.92;;;;;;;8.94;100.00;98351.78;5055073;28;20044;-78
2021/11/02 01:23:25;;;;;;;2.47;2.28;;;;;;;9.16;100.00;98351.03;5054572;28;20394;-78
2021/11/02 01:25:51;;;;;;;5.25;2.10;;;;;;;8.90;100.00;98340.81;5054127;28;20127;-79
2021/11/02 01:28:19;;;;;;;4.63;2.60;;;;;;;9.09;100.00;98345.47;5054684;28;20423;-78
2021/11/02 01:30:46;;;;;;;3.83;3.20;;;;;;;8.97;100.00;98350.75;5054360;28;20402;-78
2021/11/02 01:33:17;;;;;;;2.97;2.78;;;;;;;9.03;100.00;98339.88;5072238;28;20048;-79
2021/11/02 01:35:48;;;;;;;3.25;2.60;;;;;;;9.11;100.00;98345.38;5054581;28;20044;-80
2021/11/02 01:38:18;;;;;;;2.83;2.63;;;;;;;9.10;100.00;98343.69;5053980;28;20044;-80
2021/11/02 01:40:46;;;;;;;3.17;2.50;;;;;;;9.03;100.00;98334.69;5072599;28;20040;-78
2021/11/02 01:43:15;;;;;;;3.42;3.13;;;;;;;9.29;100.00;98336.19;5053954;28;20397;-76
2021/11/02 01:45:44;;;;;;;3.75;3.42;;;;;;;9.20;100.00;98334.25;5054153;28;20044;-79
2021/11/02 01:48:17;;;;;;;5.72;2.97;;;;;;;9.12;100.00;98334.03;5071923;28;20102;-77
2021/11/02 01:50:45;;;;;;;4.07;3.22;;;;;;;9.24;100.00;98335.69;5054229;28;20045;-78
2021/11/02 01:53:16;;;;;;;6.78;3.28;;;;;;;9.14;100.00;98342.53;5053784;28;20076;-80
2021/11/02 01:55:46;;;;;;;4.53;4.13;;;;;;;9.28;100.00;98334.53;5054359;28;20150;-80
2021/11/02 01:58:15;;;;;;;4.65;4.18;;;;;;;9.15;100.00;98345.00;5053627;28;20097;-77
2021/11/02 02:00:51;;;;;;;3.78;3.47;;;;;;;9.08;100.00;98342.97;5054128;28;20040;-78
2021/11/02 02:03:50;;;;;;;5.88;3.40;;;;;;;9.07;100.00;98342.16;5054033;28;20076;-80
2021/11/02 02:06:35;;;;;;;7.00;3.60;;;;;;;8.89;100.00;98343.50;5056102;28;20517;-81
2021/11/02 02:09:20;;;;;;;4.28;3.88;;;;;;;8.88;100.00;98336.63;5057896;28;20067;-80
2021/11/02 02:12:01;;;;;;;4.57;4.18;;;;;;;9.05;100.00;98336.22;5051191;28;20048;-80
2021/11/02 02:14:45;;;;;;;4.43;4.03;;;;;;;8.96;100.00;98338.69;5056514;28;20044;-80
2021/11/02 02:17:28;;;;;;;4.63;4.22;;;;;;;9.19;100.00;98330.84;5057511;28;20072;-78
2021/11/02 02:20:07;;;;;;;5.57;5.07;;;;;;;9.13;100.00;98330.47;5062806;28;20041;-80
2021/11/02 02:23:07;;;;;;;4.43;4.03;;;;;;;9.12;100.00;98326.22;5037997;28;20147;-80
2021/11/02 02:26:16;;;;;;;3.80;3.38;;;;;;;9.08;100.00;98335.19;5037722;28;20132;-79
2021/11/02 02:28:46;;;;;;;3.38;3.08;;;;;;;9.11;100.00;98335.78;5014563;28;20080;-79
2021/11/02 02:31:19;;;;;;;4.50;3.50;;;;;;;9.05;100.00;98332.78;5052109;28;20045;-77
2021/11/02 02:33:49;;;;;;;3.28;2.97;;;;;;;9.03;100.00;98335.53;5050581;28;20147;-79
2021/11/02 02:36:39;;;;;;;2.72;2.47;;;;;;;9.03;100.00;98332.09;5044132;28;20047;-80
2021/11/02 02:39:12;;;;;;;2.83;2.45;;;;;;;8.90;100.00;98340.81;5037744;28;20041;-78
2021/11/02 02:41:50;;;;;;;2.47;2.28;;;;;;;8.86;100.00;98344.56;5046284;28;20060;-77
2021/11/02 02:44:19;;;;;;;6.20;2.40;;;;;;;8.71;100.00;98337.88;5039011;28;20041;-79
2021/11/02 02:46:48;;;;;;;2.10;1.95;;;;;;;8.73;100.00;98342.94;5037338;28;20052;-78
2021/11/02 02:49:17;;;;;;;1.92;1.83;;;;;;;8.68;100.00;98339.84;5051592;28;20044;-78
2021/11/02 02:51:46;;;;;;;2.60;2.10;;;;;;;8.68;100.00;98335.50;5057692;28;20036;-77
2021/11/02 02:54:16;;;;;;;2.65;2.00;;;;;;;8.86;100.00;98334.16;5054012;28;20127;-78
2021/11/02 02:56:49;;;;;;;2.55;1.90;;;;;;;9.02;100.00;98338.25;5037825;28;20103;-79
2021/11/02 02:59:21;;;;;;;3.60;1.98;;;;;;;8.95;100.00;98331.81;5039880;28;20087;-79
2021/11/02 03:01:52;;;;;;;2.20;2.00;;;;;;;8.84;100.00;98336.06;5038353;28;20045;-79
2021/11/02 03:04:30;;;;;;;4.00;1.67;;;;;;;8.72;100.00;98326.53;5049589;28;20040;-78
2021/11/02 03:07:01;;;;;;;1.80;1.70;;;;;;;8.91;100.00;98332.06;5048564;28;20087;-80
2021/11/02 03:09:30;;;;;;;1.50;1.40;;;;;;;8.96;100.00;98336.09;5036865;28;20041;-77
2021/11/02 03:11:59;;;;;;;1.42;1.33;;;;;;;8.89;100.00;98335.69;5038018;28;20048;-81
2021/11/02 03:14:35;;;;;;;1.55;1.45;;;;;;;8.96;100.00;98344.72;5038119;28;20560;-79
2021/11/02 03:17:09;;;;;;;3.13;1.80;;;;;;;9.04;100.00;98344.13;5036115;28;20379;-80
2021/11/02 05:08:40;;;;;;;2.75;2.55;;;;;;;8.19;100.00;98418.59;5050475;28;20078;-82
2021/11/02 05:12:30;;;;;;;3.28;2.97;;;;;;;8.27;100.00;98417.16;5039726;28;20041;-82
2021/11/02 06:00:24;;;;;;;2.95;2.75;;;;;;;7.80;100.00;98410.84;5050723;28;20045;-84
2021/11/02 06:03:12;;;;;;;7.65;3.20;;;;;;;7.80;100.00;98421.22;5036507;28;20157;-85
2021/11/02 06:05:48;;;;;;;4.47;3.60;;;;;;;7.87;100.00;98416.44;5051458;28;20118;-84
2021/11/02 06:28:23;;;;;;;6.80;4.32;;;;;;;7.91;100.00;98450.81;5051121;28;20045;-82
2021/11/02 06:31:15;;;;;;;8.48;5.25;;;;;;;8.15;100.00;98459.53;5050652;28;20045;-82
2021/11/02 06:58:37;;;;;;;11.95;9.90;;;;;;;8.72;100.00;98482.41;5030305;28;20538;-78
2021/11/02 07:18:19;;;;;;;13.27;9.10;;;;;;;9.27;100.00;98494.09;5030917;28;20093;-79
2021/11/02 07:23:35;;;;;;;7.88;7.07;;;;;;;9.42;100.00;98502.50;5031062;28;20057;-77
2021/11/02 08:47:49;;;;;;;10.85;9.05;;;;;;;11.27;100.00;98571.78;5032528;28;20080;-77
2021/11/02 08:50:19;;;;;;;10.02;8.20;;;;;;;11.35;100.00;98572.03;5031676;28;20442;-77
2021/11/02 08:52:51;;;;;;;11.23;8.25;;;;;;;10.69;100.00;98573.72;5041978;28;20150;-77
2021/11/02 08:55:18;;;;;;;11.02;9.10;;;;;;;11.33;100.00;98568.69;5036929;28;20052;-77
2021/11/02 08:57:47;;;;;;;12.93;8.55;;;;;;;11.68;100.00;98568.47;5040210;28;20107;-78
2021/11/02 09:00:15;;;;;;;10.20;8.27;;;;;;;11.72;100.00;98558.63;5032214;28;20491;-78
2021/11/02 09:02:56;;;;;;;13.52;8.15;;;;;;;11.53;98.66;98549.66;5026703;28;20080;-77
2021/11/02 09:05:26;;;;;;;11.60;9.15;;;;;;;11.53;99.70;98560.09;5033197;28;20037;-76
2021/11/02 09:07:57;;;;;;;14.30;9.30;;;;;;;11.86;99.63;98566.16;5031185;28;20492;-76
2021/11/02 09:10:25;;;;;;;10.05;8.65;;;;;;;11.61;100.00;98571.69;5031070;28;20033;-76
2021/11/02 09:12:54;;;;;;;10.95;9.50;;;;;;;11.59;100.00;98576.22;5030371;28;20088;-77
2021/11/02 09:15:29;;;;;;;10.55;8.93;;;;;;;11.51;97.03;98574.22;5042509;28;20040;-76
2021/11/02 09:17:57;;;;;;;;;;;;;;;11.32;97.92;98572.25;5039030;28;20034;-76
2021/11/02 09:20:25;;;;;;;11.43;9.07;;;;;;;11.75;100.00;98579.22;5036208;28;19921;-77
2021/11/02 09:22:52;;;;;;;9.77;7.93;;;;;;;11.73;97.95;98581.16;5045284;28;20041;-77
2021/11/02 09:25:20;;;;;;;12.05;9.35;;;;;;;11.84;100.00;98582.94;5039629;28;20045;-76
2021/11/02 09:27:48;;;;;;;9.93;8.40;;;;;;;11.80;100.00;98583.13;5038341;28;20133;-77
2021/11/02 09:30:18;;;;;;;11.43;9.40;;;;;;;11.67;96.91;98584.25;5039950;28;20049;-77
2021/11/02 09:32:47;;;;;;;12.80;9.65;;;;;;;11.89;99.49;98581.59;5038762;28;20048;-77
2021/11/02 09:35:17;;;;;;;11.45;9.10;;;;;;;11.78;98.76;98585.03;5043690;28;20117;-76
2021/11/02 09:38:14;;;;;;;15.57;10.00;;;;;;;12.18;100.00;98583.56;5035327;28;20504;-76
2021/11/02 09:40:59;;;;;;;11.23;9.65;;;;;;;12.11;97.72;98585.06;5026809;28;20480;-78
2021/11/02 09:43:36;;;;;;;14.20;9.30;;;;;;;12.14;97.09;98579.56;5028938;28;20056;-79
2021/11/02 09:46:07;;;;;;;9.88;8.80;;;;;;;11.72;95.62;98587.34;5031748;28;20056;-78
2021/11/02 09:48:59;;;;;;;11.55;9.27;;;;;;;11.89;95.23;98589.44;5042669;28;20060;-78
2021/11/02 09:51:46;;;;;;;11.05;9.23;;;;;;;11.67;95.37;98594.72;5033852;28;20337;-79
2021/11/02 09:54:27;;;;;;;11.10;9.90;;;;;;;11.94;94.81;98597.72;5029181;28;20068;-79
2021/11/02 09:57:03;;;;;;;11.23;8.90;;;;;;;12.27;95.60;98601.94;5029701;28;20154;-78
2021/11/02 09:59:49;;;;;;;13.50;9.40;;;;;;;12.20;93.38;98592.13;5040661;28;20045;-79
2021/11/02 10:02:24;;;;;;;12.82;8.63;;;;;;;12.38;94.12;98603.66;5033617;28;20033;-79
2021/11/02 10:05:07;;;;;;;11.55;8.93;;;;;;;12.35;94.52;98600.47;5028416;28;20050;-80
2021/11/02 10:07:45;;;;;;;9.23;8.23;;;;;;;12.59;94.48;98599.25;5038953;28;20050;-81
2021/11/02 10:10:16;;;;;;;12.35;8.10;;;;;;;12.64;93.26;98608.50;5031564;28;20473;-80
2021/11/02 10:13:00;;;;;;;11.57;7.35;;;;;;;12.66;93.12;98602.16;5029198;28;20045;-78
2021/11/02 10:15:52;;;;;;;9.60;8.20;;;;;;;12.80;92.69;98603.63;5024588;28;20060;-79
2021/11/02 10:18:51;;;;;;;11.35;9.18;;;;;;;12.67;92.22;98608.22;5042707;28;20049;-80
2021/11/02 10:21:55;;;;;;;10.50;8.43;;;;;;;12.76;93.42;98607.44;5024020;28;20133;-79
2021/11/02 10:24:34;;;;;;;10.57;8.63;;;;;;;12.82;94.49;98606.91;5024497;28;20046;-80
2021/11/02 10:27:16;;;;;;;10.57;7.93;;;;;;;12.54;92.24;98611.88;5029323;28;20111;-80
2021/11/02 10:30:28;;;;;;;10.60;9.23;;;;;;;12.39;92.83;98604.47;5029360;28;20492;-80
2021/11/02 10:33:29;;;;;;;10.77;9.05;;;;;;;12.69;92.91;98607.16;5025036;28;20076;-79
2021/11/02 10:36:16;;;;;;;12.27;9.98;;;;;;;12.94;94.53;98613.72;5031913;28;20123;-79
2021/11/02 10:38:55;;;;;;;11.00;8.57;;;;;;;12.98;93.14;98612.50;5030639;28;20042;-80
2021/11/02 10:41:30;;;;;;;8.88;7.97;;;;;;;13.13;92.65;98614.75;5024834;28;20456;-79
2021/11/02 10:44:18;;;;;;;10.00;8.23;;;;;;;13.30;91.06;98606.28;5031629;28;20174;-79
2021/11/02 10:47:09;;;;;;;9.05;8.10;;;;;;;13.26;92.01;98610.13;5031443;28;20053;-79
2021/11/02 10:49:36;;;;;;;8.57;7.68;;;;;;;13.16;90.06;98611.88;5027456;28;20052;-80
2021/11/02 10:52:05;;;;;;;9.23;7.78;;;;;;;13.34;88.71;98618.97;5032389;28;20103;-80
2021/11/02 10:54:51;;;;;;;10.27;7.50;;;;;;;13.23;89.33;98608.63;5030641;28;20049;-79
2021/11/02 10:57:56;;;;;;;9.70;7.90;;;;;;;13.68;90.28;98615.19;5031141;28;20174;-80
2021/11/02 11:00:24;;;;;;;10.75;7.63;;;;;;;13.51;89.42;98612.28;5032805;28;20092;-79
2021/11/02 11:02:55;;;;;;;7.97;6.82;;;;;;;13.72;88.39;98609.53;5032750;28;20042;-78
2021/11/02 11:05:27;;;;;;;7.35;6.57;;;;;;;13.55;88.20;98608.44;5026181;28;20198;-78
2021/11/02 11:07:58;;;;;;;8.95;8.00;;;;;;;13.72;88.55;98601.69;5028353;28;20048;-78
2021/11/02 11:10:28;;;;;;;6.97;6.10;;;;;;;13.75;86.95;98592.75;5029135;28;20045;-78
2021/11/02 11:12:58;;;;;;;9.85;6.72;;;;;;;13.70;88.08;98587.09;5030076;28;20058;-77
2021/11/02 11:15:30;;;;;;;7.25;6.50;;;;;;;13.77;88.26;98596.88;5029477;28;20040;-79
2021/11/02 11:18:05;;;;;;;8.82;7.70;;;;;;;13.72;89.14;98590.38;5029540;28;20049;-79
2021/11/02 11:20:34;;;;;;;8.60;7.65;;;;;;;13.93;87.67;98588.47;5026451;28;20483;-80
2021/11/02 11:23:07;;;;;;;9.23;8.00;;;;;;;13.98;89.24;98594.13;5031235;28;20111;-80
2021/11/02 11:26:05;;;;;;;8.52;7.72;;;;;;;13.88;88.07;98595.91;5025053;28;20042;-77
2021/11/02 11:28:37;;;;;;;9.25;7.78;;;;;;;14.06;89.30;98588.19;5023890;28;20103;-78
2021/11/02 11:31:04;;;;;;;9.60;7.55;;;;;;;13.71;89.71;98588.75;5024099;28;20504;-81
2021/11/02 11:33:32;;;;;;;8.80;7.13;;;;;;;13.79;89.90;98594.09;5030910;28;20447;-81
2021/11/02 11:36:02;;;;;;;9.98;8.25;;;;;;;13.67;89.91;98588.19;5031004;28;20045;-81
2021/11/02 11:38:38;;;;;;;10.65;7.80;;;;;;;13.76;89.70;98583.94;5024701;28;20037;-81
2021/11/02 11:41:08;;;;;;;10.07;8.00;;;;;;;13.88;88.60;98588.06;5026748;28;20046;-82
2021/11/02 11:43:35;;;;;;;9.30;8.32;;;;;;;13.70;88.33;98577.44;5030590;28;20041;-77
2021/11/02 11:46:04;;;;;;;9.75;8.75;;;;;;;13.89;87.76;98584.47;5030069;28;20080;-77
2021/11/02 11:48:38;;;;;;;12.35;10.07;;;;;;;13.92;86.26;98591.22;5027544;28;20041;-78
2021/11/02 11:51:07;;;;;;;10.73;8.63;;;;;;;13.98;85.81;98591.50;5025239;28;20052;-77
2021/11/02 11:53:36;;;;;;;15.30;11.23;;;;;;;13.77;84.93;98590.81;5029604;28;20045;-78
2021/11/02 11:56:10;;;;;;;11.60;10.35;;;;;;;13.91;85.84;98595.66;5027276;28;20491;-79
2021/11/02 11:58:51;;;;;;;15.27;10.45;;;;;;;13.88;86.38;98598.53;5027179;28;20038;-79
2021/11/02 12:01:29;;;;;;;12.98;11.20;;;;;;;13.82;86.21;98597.28;5028051;28;20455;-80
2021/11/02 12:04:08;;;;;;;17.25;11.93;;;;;;;13.82;86.47;98602.53;5029741;28;20120;-78
2021/11/02 12:07:32;;;;;;;13.73;11.82;;;;;;;13.85;86.58;98604.06;5028882;28;20141;-76
2021/11/02 12:10:08;;;;;;;17.95;13.75;;;;;;;13.89;87.40;98600.19;4950891;28;20052;-81
2021/11/02 12:12:38;;;;;;;19.67;12.60;;;;;;;14.03;86.86;98601.56;4953283;28;20487;-81
2021/11/02 12:15:17;;;;;;;11.63;9.82;;;;;;;13.99;88.42;98602.81;5012366;28;20562;-81
2021/11/02 12:17:59;;;;;;;13.57;11.00;;;;;;;13.96;88.76;98611.78;5030272;28;20472;-85
2021/11/02 12:20:28;;;;;;;12.30;9.45;;;;;;;13.88;87.90;98606.38;5038339;28;20063;-81
2021/11/02 12:23:02;;;;;;;12.88;10.07;;;;;;;14.04;87.97;98600.59;5034466;28;20044;-80
2021/11/02 12:25:32;;;;;;;12.73;8.70;;;;;;;14.09;87.13;98607.06;5039902;28;20061;-83
2021/11/02 12:28:00;;;;;;;9.45;8.40;;;;;;;14.02;86.87;98613.03;5032410;28;20056;-79
2021/11/02 12:30:27;;;;;;;9.27;8.25;;;;;;;13.89;88.39;98605.41;5031940;28;20064;-80
2021/11/02 12:32:56;;;;;;;11.52;8.73;;;;;;;14.01;87.30;98606.97;5039085;28;20049;-83
2021/11/02 12:35:39;;;;;;;9.57;6.97;;;;;;;14.02;86.32;98607.78;5036447;28;20041;-80
2021/11/02 12:38:07;;;;;;;7.53;6.35;;;;;;;14.07;85.99;98605.56;5027570;28;20037;-81
2021/11/02 12:40:38;;;;;;;7.13;6.43;;;;;;;14.22;86.78;98596.31;5030650;28;20049;-82
2021/11/02 12:43:29;;;;;;;6.65;6.05;;;;;;;14.25;85.05;98582.09;5030148;28;20041;-80
2021/11/02 12:46:02;;;;;;;12.45;7.13;;;;;;;14.28;83.52;98589.69;5027137;28;20072;-78
2021/11/02 12:48:32;;;;;;;7.22;6.18;;;;;;;14.35;83.94;98598.63;5029289;28;20071;-81
2021/11/02 12:51:15;;;;;;;7.90;7.13;;;;;;;14.40;83.99;98597.25;5029289;28;20041;-82
2021/11/02 12:53:46;;;;;;;12.68;6.88;;;;;;;14.51;83.91;98604.16;5028733;28;20645;-82
2021/11/02 12:56:17;;;;;;;11.70;8.20;;;;;;;14.34;84.52;98602.22;5029096;28;20088;-81
2021/11/02 12:58:47;;;;;;;13.30;8.30;;;;;;;14.41;85.41;98605.94;5029770;28;20502;-81
2021/11/02 13:01:33;;;;;;;9.60;7.72;;;;;;;14.66;84.13;98607.16;5029365;28;20052;-79
2021/11/02 13:04:09;;;;;;;7.88;6.75;;;;;;;14.57;84.89;98606.22;5046738;28;20034;-80
2021/11/02 13:06:50;;;;;;;11.43;7.38;;;;;;;14.63;84.31;98603.00;5031886;28;20446;-81
2021/11/02 13:09:23;;;;;;;10.05;7.20;;;;;;;14.78;84.32;98618.31;5032125;28;20051;-79
2021/11/02 13:12:11;;;;;;;10.60;7.13;;;;;;;14.76;83.01;98615.00;5034563;28;20483;-80
2021/11/02 13:14:42;;;;;;;10.65;7.50;;;;;;;14.73;82.38;98613.47;5023046;28;20053;-81
2021/11/02 13:17:11;;;;;;;11.43;8.20;;;;;;;14.86;83.21;98619.25;5035858;28;20435;-81
2021/11/02 13:19:48;;;;;;;8.93;8.05;;;;;;;14.98;82.25;98614.66;5033500;28;20566;-80
2021/11/02 13:22:20;;;;;;;10.23;8.02;;;;;;;14.94;82.80;98621.97;5032621;28;20041;-81
2021/11/02 13:25:02;;;;;;;14.48;7.65;;;;;;;14.81;83.16;98613.63;5030375;28;20041;-80
2021/11/02 13:27:30;;;;;;;15.82;7.38;;;;;;;14.89;82.72;98613.72;5029795;28;20040;-81
2021/11/02 13:30:35;;;;;;;11.93;8.00;;;;;;;15.06;82.05;98613.91;5030060;28;20048;-81
2021/11/02 13:33:02;;;;;;;9.15;8.25;;;;;;;15.08;81.84;98612.81;5029251;28;20049;-80
2021/11/02 13:35:57;;;;;;;10.80;8.48;;;;;;;15.16;82.01;98610.28;5030401;28;20037;-81
2021/11/02 13:38:46;;;;;;;11.00;8.75;;;;;;;15.20;81.17;98616.91;5021640;28;20045;-79
2021/11/02 13:41:24;;;;;;;9.82;8.07;;;;;;;15.26;80.17;98614.66;5015713;28;20041;-81
2021/11/02 13:44:05;;;;;;;8.70;7.65;;;;;;;15.19;80.75;98614.41;5017786;28;20116;-81
2021/11/02 13:46:36;;;;;;;12.63;7.70;;;;;;;15.26;79.91;98625.16;5024289;28;20106;-82
2021/11/02 13:49:05;;;;;;;10.88;7.35;;;;;;;15.29;79.69;98622.25;5016168;28;20121;-82
2021/11/02 13:51:32;;;;;;;8.65;7.85;;;;;;;15.36;79.42;98628.56;5015566;28;20038;-84
2021/11/02 13:54:00;;;;;;;13.38;8.80;;;;;;;15.35;78.73;98625.13;5017025;28;20080;-83
2021/11/02 13:56:32;;;;;;;9.63;7.32;;;;;;;15.51;78.71;98627.09;5018804;28;20141;-84
2021/11/02 13:59:00;;;;;;;11.48;7.70;;;;;;;15.54;78.32;98634.66;5023523;28;20045;-83
2021/11/02 14:01:30;;;;;;;13.38;8.00;;;;;;;15.57;78.44;98629.13;5035743;28;20427;-81
2021/11/02 14:04:22;;;;;;;7.50;6.75;;;;;;;15.58;78.32;98641.28;5042080;28;20044;-83
2021/11/02 14:06:55;;;;;;;12.05;9.02;;;;;;;15.59;77.73;98639.47;5039748;28;20467;-82
2021/11/02 14:09:27;;;;;;;11.98;7.38;;;;;;;15.57;78.00;98639.63;5038187;28;20045;-82
2021/11/02 14:11:57;;;;;;;7.40;6.70;;;;;;;15.59;77.95;98635.06;5053596;28;20483;-81
2021/11/02 14:14:42;;;;;;;10.65;7.63;;;;;;;15.62;77.77;98636.56;5034551;28;20041;-81
2021/11/02 14:17:20;;;;;;;;;;;;;;;15.60;78.30;98641.13;5040617;28;20045;-81
2021/11/02 14:19:51;;;;;;;8.30;7.03;;;;;;;15.57;77.94;98634.38;5025061;28;19969;-84
2021/11/02 14:22:41;;;;;;;10.77;8.15;;;;;;;15.60;78.28;98639.31;5039760;28;20118;-85
2021/11/02 14:25:37;;;;;;;12.35;8.15;;;;;;;15.62;77.77;98636.56;5026062;28;20049;-82
2021/11/02 14:28:05;;;;;;;11.45;8.40;;;;;;;15.50;78.20;98641.22;5028758;28;20053;-82
2021/11/02 14:30:31;;;;;;;14.18;7.88;;;;;;;15.54;78.70;98647.81;5033485;28;20042;-80
2021/11/02 14:33:20;;;;;;;14.98;7.88;;;;;;;15.59;78.67;98650.00;5038643;28;20045;-80
2021/11/02 14:35:53;;;;;;;9.05;8.18;;;;;;;15.56;78.18;98643.25;5032304;28;20461;-81
2021/11/02 14:38:44;;;;;;;9.50;7.60;;;;;;;15.51;78.84;98648.13;5035070;28;20068;-88
2021/11/02 14:41:29;;;;;;;7.70;6.25;;;;;;;15.52;78.75;98656.81;5016893;28;20104;-81
2021/11/02 14:44:24;;;;;;;10.98;7.75;;;;;;;15.62;77.86;98655.78;5017083;28;20161;-83
2021/11/02 14:46:58;;;;;;;8.63;7.03;;;;;;;15.44;78.92;98653.09;5016877;28;20073;-81
2021/11/02 14:49:28;;;;;;;;;;;;;;;15.48;79.29;98653.66;5023932;28;20754;-84
2021/11/02 14:52:00;;;;;;;12.93;8.27;;;;;;;15.38;79.18;98650.25;5022087;28;19921;-81
2021/11/02 14:54:34;;;;;;;10.05;7.20;;;;;;;15.47;79.54;98659.88;5021549;28;20043;-82
2021/11/02 14:57:19;;;;;;;7.72;6.70;;;;;;;15.49;79.43;98657.91;5020817;28;20129;-81
2021/11/02 14:59:57;;;;;;;9.02;7.38;;;;;;;15.49;78.86;98647.41;5018274;28;20129;-84
2021/11/02 15:02:42;;;;;;;13.13;9.50;;;;;;;15.42;78.84;98651.59;5039151;28;20041;-82
2021/11/02 15:05:18;;;;;;;21.52;10.55;;;;;;;15.42;79.00;98644.56;5021501;28;20116;-88
2021/11/02 15:07:48;;;;;;;10.25;7.15;;;;;;;15.51;78.91;98644.66;5019903;28;20111;-85
2021/11/02 15:10:18;;;;;;;8.50;6.32;;;;;;;15.49;79.60;98646.59;5021190;28;20092;-82
2021/11/02 15:12:49;;;;;;;11.13;7.45;;;;;;;15.43;80.02;98648.00;5020585;28;20038;-83
2021/11/02 15:15:16;;;;;;;9.52;6.65;;;;;;;15.41;80.59;98645.53;5015837;28;20046;-85
2021/11/02 15:17:43;;;;;;;13.20;7.75;;;;;;;15.41;81.13;98655.22;5025087;28;20037;-85
2021/11/02 15:20:24;;;;;;;10.77;7.25;;;;;;;15.33;81.77;98662.97;5018603;28;20054;-85
2021/11/02 15:22:53;;;;;;;8.27;7.38;;;;;;;15.15;83.33;98666.38;5019798;28;20041;-84
2021/11/02 15:25:20;;;;;;;7.20;6.50;;;;;;;15.08;83.54;98669.72;5018792;28;20096;-85
2021/11/02 15:27:56;;;;;;;9.40;6.88;;;;;;;15.18;83.62;98671.34;5020400;28;20033;-86
2021/11/02 15:30:23;;;;;;;20.15;16.92;;;;;;;15.17;83.08;98671.47;5016766;28;20124;-85
2021/11/02 15:32:51;;;;;;;13.13;10.50;;;;;;;14.94;85.83;98666.56;5023194;28;20042;-84
2021/11/02 15:35:22;;;;;;;10.32;8.95;;;;;;;14.86;88.07;98671.72;5016457;28;20038;-85
2021/11/02 15:37:53;;;;;;;21.25;9.20;;;;;;;14.70;89.06;98665.38;5018747;28;20045;-83
2021/11/02 15:40:29;;;;;;;16.23;10.85;;;;;;;14.64;90.04;98675.47;5019265;28;20045;-84
2021/11/02 15:42:58;;;;;;;21.00;12.10;;;;;;;14.70;89.23;98665.38;5020062;28;20046;-82
2021/11/02 15:45:38;;;;;;;23.70;12.45;;;;;;;14.42;90.67;98684.44;5019289;28;20064;-83
2021/11/02 15:48:15;;;;;;;16.25;12.25;;;;;;;14.45;90.43;98678.09;5023049;28;20037;-84
2021/11/02 15:50:49;;;;;;;20.00;13.20;;;;;;;14.45;90.08;98678.09;5032229;28;20053;-83
2021/11/02 15:53:21;;;;;;;19.40;13.47;;;;;;;14.19;91.96;98677.00;5029763;28;20041;-83
2021/11/02 15:55:56;;;;;;;15.45;10.52;;;;;;;14.11;93.36;98686.38;5031782;28;20658;-82
2021/11/02 15:58:24;;;;;;;13.75;9.00;;;;;;;13.92;93.75;98685.53;5030049;28;20037;-82
2021/11/02 16:00:51;;;;;;;14.10;8.43;;;;;;;13.95;93.51;98686.06;5032950;28;20038;-83
2021/11/02 16:03:18;;;;;;;11.68;9.20;;;;;;;14.00;93.48;98690.91;5030517;28;20463;-84
2021/11/02 16:05:45;;;;;;;11.05;9.73;;;;;;;13.94;93.31;98692.28;5034431;28;20038;-84
2021/11/02 16:08:21;;;;;;;9.88;8.88;;;;;;;14.12;91.77;98690.66;5032895;28;20446;-84
2021/11/02 16:10:52;;;;;;;15.35;10.07;;;;;;;14.00;92.33;98693.53;5028864;28;20083;-84
2021/11/02 16:13:26;;;;;;;22.77;19.67;;;;;;;14.18;91.14;98691.09;5031509;28;20180;-83
2021/11/02 16:15:54;;;;;;;12.45;10.02;;;;;;;13.88;92.90;98700.69;5030452;28;20045;-83
2021/11/02 16:18:33;;;;;;;10.18;7.50;;;;;;;13.92;92.85;98698.63;5023198;28;20050;-84
2021/11/02 16:21:03;;;;;;;12.50;7.95;;;;;;;13.62;93.97;98703.78;5032711;28;20049;-84
2021/11/02 16:23:48;;;;;;;11.75;7.85;;;;;;;13.50;95.66;98712.72;5035424;28;20045;-83
2021/11/02 16:26:19;;;;;;;;;;;;;;;13.65;94.43;98709.75;5040624;28;20075;-83
2021/11/02 16:28:47;;;;;;;17.13;12.63;;;;;;;13.65;94.09;98715.78;5025205;28;19921;-85
2021/11/02 16:31:26;;;;;;;16.55;14.70;;;;;;;13.66;93.81;98711.38;5038769;28;20093;-85
2021/11/02 16:33:55;;;;;;;17.08;14.82;;;;;;;13.28;95.91;98712.91;5022734;28;20038;-85
2021/11/02 16:36:24;;;;;;;16.08;12.10;;;;;;;13.26;96.45;98713.03;5030723;28;20072;-83
2021/11/02 16:38:55;;;;;;;9.57;8.63;;;;;;;13.02;98.22;98725.53;5035257;28;20041;-81
2021/11/02 16:41:47;;;;;;;17.77;11.05;;;;;;;13.30;96.66;98731.91;5031289;28;20045;-82
2021/11/02 16:44:36;;;;;;;15.93;12.85;;;;;;;13.21;97.21;98730.91;5020585;28;20472;-83
2021/11/02 16:47:11;;;;;;;15.75;13.25;;;;;;;13.05;98.01;98733.97;5034293;28;20056;-83
2021/11/02 16:49:39;;;;;;;18.52;12.23;;;;;;;12.89;98.66;98722.28;5036091;28;20080;-81
2021/11/02 16:52:24;;;;;;;16.45;13.02;;;;;;;12.95;99.44;98724.41;5034345;28;20397;-83
2021/11/02 16:54:51;;;;;;;15.55;11.63;;;;;;;13.03;98.91;98730.63;5031191;28;20037;-82
2021/11/02 16:57:18;;;;;;;12.68;11.27;;;;;;;12.88;99.94;98734.53;5037620;28;20052;-83
2021/11/02 17:00:12;;;;;;;15.10;11.52;;;;;;;12.72;100.00;98742.00;5032505;28;20496;-81
2021/11/02 17:02:41;;;;;;;14.98;12.52;;;;;;;12.83;100.00;98745.38;5037680;28;20049;-85
2021/11/02 17:05:20;;;;;;;19.67;11.85;;;;;;;12.67;100.00;98750.22;5026899;28;20132;-82
2021/11/02 17:07:47;;;;;;;17.75;11.20;;;;;;;12.71;99.82;98746.41;5034304;28;20045;-85